Time;durP1;ratioP1;P1;durP2;ratioP2;P2;SDS_P1;SDS_P2;PMS_P1;PMS_P2;Temp;Humidity;BMP_temperature;BMP_pressure;BME280_temperature;BME280_humidity;BME280_pressure;Samples;Min_cycle;Max_cycle;Signal;HPM_P1;HPM_P2
2022/06/04 00:01:43;;;;;;;3.58;0.60;;;14.70;82.40;;;;;;4978540;28;20029;-88
2022/06/04 00:04:16;;;;;;;2.80;0.63;;;14.60;82.80;;;;;;4995509;28;20045;-86
2022/06/04 00:06:44;;;;;;;2.30;0.52;;;14.60;83.20;;;;;;5006780;28;20045;-87
2022/06/04 00:09:29;;;;;;;1.75;0.60;;;14.50;83.70;;;;;;5007287;28;20460;-87
2022/06/04 00:17:35;;;;;;;3.83;0.98;;;14.40;85.00;;;;;;4991865;28;20563;-87
2022/06/04 00:20:14;;;;;;;2.92;0.88;;;14.30;85.70;;;;;;5012131;28;20373;-86
2022/06/04 00:22:45;;;;;;;2.00;1.10;;;14.20;86.00;;;;;;5027677;28;20037;-88
2022/06/04 00:25:16;;;;;;;2.35;0.82;;;14.20;87.10;;;;;;4979060;28;20044;-88
2022/06/04 00:27:43;;;;;;;6.40;1.40;;;14.20;87.70;;;;;;5010368;28;20029;-87
2022/06/04 00:30:13;;;;;;;2.60;0.93;;;14.10;88.40;;;;;;4997047;28;20033;-88
2022/06/04 00:32:39;;;;;;;4.05;1.10;;;14.00;89.20;;;;;;4983260;28;20112;-87
2022/06/04 00:35:06;;;;;;;2.65;1.13;;;14.00;89.90;;;;;;4998685;28;20045;-88
2022/06/04 00:37:34;;;;;;;3.90;0.85;;;14.00;90.20;;;;;;4980401;28;20033;-88
2022/06/04 00:40:07;;;;;;;4.18;1.30;;;13.90;90.50;;;;;;4997156;28;20033;-90
2022/06/04 00:42:37;;;;;;;2.45;1.10;;;13.90;90.90;;;;;;4995476;28;20048;-87
2022/06/04 00:45:21;;;;;;;1.85;0.90;;;13.80;91.30;;;;;;5015224;28;20025;-87
2022/06/04 00:47:51;;;;;;;3.95;1.00;;;13.80;91.60;;;;;;4998806;28;20037;-87
2022/06/04 00:50:21;;;;;;;3.42;0.90;;;13.70;92.00;;;;;;4999875;28;20035;-87
2022/06/04 00:52:49;;;;;;;2.35;0.90;;;13.70;92.40;;;;;;4978633;28;20034;-87
2022/06/04 00:55:18;;;;;;;3.05;1.35;;;13.70;92.70;;;;;;4981595;28;20048;-87
2022/06/04 00:57:53;;;;;;;1.58;1.08;;;13.60;93.20;;;;;;5011678;28;20041;-88
2022/06/04 01:00:20;;;;;;;2.30;1.02;;;13.60;93.60;;;;;;4998741;28;20040;-86
2022/06/04 01:02:56;;;;;;;4.25;1.38;;;13.60;94.00;;;;;;5007367;28;20033;-86
2022/06/04 01:05:35;;;;;;;5.18;1.90;;;13.50;94.40;;;;;;5010258;28;20041;-87
2022/06/04 01:08:55;;;;;;;8.07;1.45;;;13.50;94.90;;;;;;4978081;28;20037;-89
2022/06/04 01:12:10;;;;;;;2.75;1.15;;;13.50;95.30;;;;;;4919642;28;20050;-88
2022/06/04 01:14:52;;;;;;;3.40;0.93;;;13.40;95.80;;;;;;4923193;28;20047;-88
2022/06/04 01:18:14;;;;;;;3.67;1.52;;;13.40;96.10;;;;;;4989170;28;20041;-88
2022/06/04 01:20:48;;;;;;;3.00;1.35;;;13.40;96.60;;;;;;4969017;28;20045;-88
2022/06/04 01:23:26;;;;;;;3.20;1.60;;;13.30;96.90;;;;;;4989814;28;20033;-88
2022/06/04 01:26:40;;;;;;;4.63;2.00;;;13.30;97.40;;;;;;5008557;28;20040;-88
2022/06/04 01:29:14;;;;;;;5.43;2.30;;;13.30;97.80;;;;;;4968979;28;20048;-86
2022/06/04 01:31:53;;;;;;;8.63;2.33;;;13.20;98.60;;;;;;5006379;28;20497;-77
2022/06/04 01:34:26;;;;;;;5.85;1.52;;;13.30;98.80;;;;;;5032339;28;20033;-77
2022/06/04 01:36:59;;;;;;;7.05;2.42;;;13.30;98.90;;;;;;5020176;28;20037;-77
2022/06/04 01:41:03;;;;;;;5.35;1.90;;;13.40;99.40;;;;;;5018188;28;20480;-77
2022/06/04 01:42:17;;;;;;;5.03;2.03;;;13.40;99.70;;;;;;5005829;28;20045;-77
2022/06/04 01:44:46;;;;;;;3.22;1.95;;;13.40;99.90;;;;;;5013429;28;20041;-78
2022/06/04 01:47:17;;;;;;;3.42;2.28;;;13.40;99.90;;;;;;5020130;28;20034;-77
2022/06/04 01:49:50;;;;;;;4.63;1.38;;;13.40;99.90;;;;;;5036108;28;20500;-77
2022/06/04 01:52:41;;;;;;;3.90;1.60;;;13.40;99.90;;;;;;5000868;28;20052;-78
2022/06/04 01:55:43;;;;;;;4.10;1.73;;;13.40;99.90;;;;;;5021085;28;20038;-78
2022/06/04 01:58:27;;;;;;;3.88;2.20;;;13.40;99.90;;;;;;4983167;28;20041;-78
2022/06/04 02:01:01;;;;;;;3.10;1.73;;;13.30;99.90;;;;;;5033928;28;20030;-78
2022/06/04 02:03:53;;;;;;;3.95;2.25;;;13.30;99.90;;;;;;5018575;28;20175;-77
2022/06/04 02:06:29;;;;;;;5.57;2.38;;;13.30;99.90;;;;;;5033641;28;20037;-78
2022/06/04 02:09:05;;;;;;;5.63;2.60;;;13.30;99.90;;;;;;5015175;28;20364;-77
2022/06/04 02:11:36;;;;;;;6.10;2.60;;;13.30;99.90;;;;;;5021091;28;20034;-77
2022/06/04 02:14:06;;;;;;;5.80;2.08;;;13.30;99.90;;;;;;5016815;28;20053;-78
2022/06/04 02:16:54;;;;;;;5.40;1.73;;;13.20;99.90;;;;;;5022238;28;20032;-77
2022/06/04 02:19:22;;;;;;;5.82;2.00;;;13.20;99.90;;;;;;5020111;28;20037;-77
2022/06/04 02:21:49;;;;;;;4.00;2.20;;;13.20;99.90;;;;;;5017297;28;20036;-77
2022/06/04 02:24:16;;;;;;;5.65;2.08;;;13.20;99.90;;;;;;5042335;28;20356;-77
2022/06/04 02:26:48;;;;;;;3.95;1.83;;;13.20;99.90;;;;;;5010087;28;20029;-77
2022/06/04 02:29:16;;;;;;;4.00;2.00;;;13.20;99.90;;;;;;5026628;28;20491;-77
2022/06/04 02:32:05;;;;;;;5.15;1.88;;;13.20;99.90;;;;;;5039723;28;20384;-78
2022/06/04 02:34:46;;;;;;;5.28;2.53;;;13.20;99.90;;;;;;5024251;28;20368;-77
2022/06/04 02:37:16;;;;;;;4.65;1.95;;;13.10;99.90;;;;;;5028190;28;20195;-78
2022/06/04 02:40:10;;;;;;;3.55;1.83;;;13.20;99.90;;;;;;5041046;28;20032;-77
2022/06/04 02:43:00;;;;;;;3.33;1.80;;;13.10;99.90;;;;;;5008972;28;20048;-77
2022/06/04 02:45:41;;;;;;;5.18;2.45;;;13.10;99.90;;;;;;4994575;28;20024;-77
2022/06/04 02:48:18;;;;;;;2.90;2.13;;;13.10;99.90;;;;;;5024024;28;20033;-77
2022/06/04 02:51:11;;;;;;;3.92;1.20;;;13.00;99.90;;;;;;5024034;28;20048;-77
2022/06/04 02:53:41;;;;;;;5.45;2.85;;;13.00;99.90;;;;;;5024452;28;20045;-77
2022/06/04 02:56:20;;;;;;;4.70;1.55;;;13.10;99.90;;;;;;5027605;28;20499;-77
2022/06/04 02:58:57;;;;;;;4.90;2.45;;;13.00;99.90;;;;;;5035234;28;20024;-77
2022/06/04 03:01:25;;;;;;;7.45;1.90;;;13.00;99.90;;;;;;5039882;28;20037;-77
2022/06/04 03:03:52;;;;;;;8.15;2.65;;;13.00;99.90;;;;;;5023400;28;20044;-77
2022/06/04 03:06:26;;;;;;;4.47;2.08;;;13.00;99.90;;;;;;5014414;28;20033;-77
2022/06/04 03:08:58;;;;;;;7.57;2.63;;;13.00;99.90;;;;;;5006535;28;20045;-78
2022/06/04 03:11:31;;;;;;;;;;;13.00;99.90;;;;;;5039436;28;20064;-77
2022/06/04 03:14:00;;;;;;;8.02;2.63;;;12.90;99.90;;;;;;5026014;28;19920;-77
2022/06/04 03:16:36;;;;;;;4.57;2.50;;;12.90;99.90;;;;;;4995129;28;20483;-77
2022/06/04 03:19:07;;;;;;;8.27;3.10;;;12.90;99.90;;;;;;5038874;28;20036;-77
2022/06/04 03:21:35;;;;;;;7.60;2.92;;;12.90;99.90;;;;;;5008413;28;20067;-81
2022/06/04 03:24:06;;;;;;;8.70;4.13;;;12.80;99.90;;;;;;5012325;28;20045;-82
2022/06/04 03:26:33;;;;;;;7.10;2.78;;;12.80;99.90;;;;;;5024282;28;21311;-82
2022/06/04 03:29:01;;;;;;;5.03;1.63;;;12.80;99.90;;;;;;4995706;28;20040;-82
2022/06/04 03:31:28;;;;;;;8.07;3.10;;;12.90;99.90;;;;;;5007489;28;20041;-81
2022/06/04 03:33:56;;;;;;;5.57;2.97;;;12.90;99.90;;;;;;5039821;28;20488;-82
2022/06/04 03:36:25;;;;;;;6.25;2.92;;;12.80;99.90;;;;;;5040528;28;20029;-82
2022/06/04 03:38:58;;;;;;;5.55;3.30;;;12.80;99.90;;;;;;5008410;28;20036;-82
2022/06/04 03:41:24;;;;;;;5.97;2.88;;;12.80;99.90;;;;;;5038300;28;20032;-83
2022/06/04 03:43:54;;;;;;;7.40;2.88;;;12.70;99.90;;;;;;5023879;28;20025;-82
2022/06/04 03:46:25;;;;;;;8.65;3.15;;;12.70;99.90;;;;;;5026449;28;20026;-83
2022/06/04 03:48:56;;;;;;;9.10;3.10;;;12.70;99.90;;;;;;5024814;28;20021;-82
2022/06/04 03:51:25;;;;;;;9.70;3.58;;;12.70;99.90;;;;;;5010182;28;20503;-83
2022/06/04 03:53:52;;;;;;;4.00;2.20;;;12.70;99.90;;;;;;5002840;28;20037;-82
2022/06/04 03:56:22;;;;;;;5.70;3.28;;;12.70;99.90;;;;;;5024786;28;20036;-82
2022/06/04 03:58:49;;;;;;;8.93;3.58;;;12.70;99.90;;;;;;5020262;28;20037;-81
2022/06/04 04:01:18;;;;;;;6.70;3.45;;;12.70;99.90;;;;;;5026604;28;20021;-82
2022/06/04 04:03:44;;;;;;;7.47;4.28;;;12.70;99.90;;;;;;5039064;28;20385;-82
2022/06/04 04:06:17;;;;;;;8.25;3.80;;;12.70;99.90;;;;;;5027047;28;20055;-82
2022/06/04 04:08:46;;;;;;;;;;;12.70;99.90;;;;;;5039201;28;20033;-82
2022/06/04 04:11:18;;;;;;;9.43;4.53;;;12.70;99.90;;;;;;5021455;28;19927;-82
2022/06/04 04:13:46;;;;;;;7.22;3.38;;;12.70;99.90;;;;;;5010664;28;20045;-81
2022/06/04 04:16:16;;;;;;;9.00;3.83;;;12.70;99.90;;;;;;5025798;28;20052;-81
2022/06/04 04:18:44;;;;;;;10.63;4.07;;;12.70;99.90;;;;;;5018384;28;20041;-82
2022/06/04 04:21:14;;;;;;;8.43;4.05;;;12.80;99.90;;;;;;5037915;28;20616;-81
2022/06/04 04:23:42;;;;;;;6.95;3.63;;;12.80;99.90;;;;;;5025957;28;20044;-82
2022/06/04 04:26:10;;;;;;;9.52;4.75;;;12.80;99.90;;;;;;5023721;28;20032;-82
2022/06/04 04:28:40;;;;;;;7.32;3.72;;;12.80;99.90;;;;;;5020235;28;20029;-82
2022/06/04 04:31:20;;;;;;;6.35;3.63;;;12.80;99.90;;;;;;5008218;28;20055;-82
2022/06/04 04:33:49;;;;;;;6.35;2.90;;;12.80;99.90;;;;;;5006733;28;20333;-78
2022/06/04 04:36:16;;;;;;;11.77;5.18;;;12.80;99.90;;;;;;5038195;28;20029;-78
2022/06/04 04:38:45;;;;;;;8.35;4.47;;;12.80;99.90;;;;;;4990965;28;20041;-78
2022/06/04 04:41:13;;;;;;;6.95;4.10;;;12.90;99.90;;;;;;5039456;28;20029;-78
2022/06/04 04:43:40;;;;;;;7.57;4.47;;;12.90;99.90;;;;;;5037589;28;20028;-78
2022/06/04 04:46:11;;;;;;;8.18;4.45;;;12.90;99.90;;;;;;5025949;28;20375;-78
2022/06/04 04:48:45;;;;;;;8.38;3.85;;;12.90;99.90;;;;;;5004817;28;20024;-82
2022/06/04 04:51:19;;;;;;;7.72;3.78;;;12.90;99.90;;;;;;5022379;28;20032;-81
2022/06/04 04:53:47;;;;;;;9.88;5.13;;;13.00;99.90;;;;;;5037844;28;20033;-78
2022/06/04 04:56:16;;;;;;;7.15;4.25;;;13.00;99.90;;;;;;5007164;28;23522;-78
2022/06/04 04:58:44;;;;;;;8.35;4.75;;;13.00;99.90;;;;;;5019020;28;20048;-78
2022/06/04 05:01:19;;;;;;;5.43;3.65;;;13.10;99.90;;;;;;5018860;28;20040;-78
2022/06/04 05:03:49;;;;;;;9.10;4.18;;;13.30;99.90;;;;;;5021120;28;20037;-77
2022/06/04 05:06:19;;;;;;;7.55;4.05;;;13.30;99.90;;;;;;5020762;28;20044;-78
2022/06/04 05:08:47;;;;;;;7.63;4.45;;;13.50;99.90;;;;;;5023540;28;20028;-78
2022/06/04 05:11:21;;;;;;;10.02;5.18;;;13.60;99.90;;;;;;5007091;28;20049;-78
2022/06/04 05:13:49;;;;;;;12.95;4.45;;;13.70;99.90;;;;;;5037921;28;20037;-79
2022/06/04 05:16:18;;;;;;;8.02;4.63;;;13.80;99.90;;;;;;5023926;28;20037;-79
2022/06/04 05:18:45;;;;;;;6.47;3.85;;;13.90;99.90;;;;;;5038846;28;20444;-79
2022/06/04 05:21:21;;;;;;;11.43;4.95;;;14.00;99.90;;;;;;4999170;28;20045;-79
2022/06/04 05:23:49;;;;;;;6.88;4.00;;;14.10;99.90;;;;;;5000466;28;20057;-79
2022/06/04 05:26:17;;;;;;;7.20;4.00;;;14.20;99.90;;;;;;5004830;28;20038;-82
2022/06/04 05:28:43;;;;;;;11.13;3.80;;;14.20;99.90;;;;;;5017020;28;20052;-82
2022/06/04 05:31:11;;;;;;;12.13;4.32;;;14.20;99.90;;;;;;5018445;28;20064;-82
2022/06/04 05:33:42;;;;;;;7.25;3.92;;;14.20;99.90;;;;;;5021837;28;20041;-85
2022/06/04 05:36:10;;;;;;;7.55;3.70;;;14.30;99.90;;;;;;5003583;28;20362;-88
2022/06/04 05:38:37;;;;;;;7.38;3.47;;;14.30;99.90;;;;;;5001086;28;20045;-83
2022/06/04 05:41:07;;;;;;;7.43;3.90;;;14.40;99.90;;;;;;5032159;28;20053;-83
2022/06/04 05:43:35;;;;;;;8.07;4.55;;;14.40;99.90;;;;;;5020706;28;20041;-83
2022/06/04 05:46:06;;;;;;;8.27;4.03;;;14.50;99.90;;;;;;5003259;28;20037;-83
2022/06/04 05:48:36;;;;;;;9.00;4.32;;;14.60;99.90;;;;;;5019418;28;20041;-82
2022/06/04 05:51:03;;;;;;;8.05;4.00;;;14.60;99.90;;;;;;5005303;28;20029;-83
2022/06/04 05:53:29;;;;;;;8.25;5.00;;;14.60;99.90;;;;;;5019188;28;20038;-86
2022/06/04 05:55:56;;;;;;;8.38;4.13;;;14.60;99.90;;;;;;5005316;28;20042;-83
2022/06/04 05:58:22;;;;;;;8.70;4.00;;;14.70;99.90;;;;;;5006253;28;20033;-83
2022/06/04 06:00:49;;;;;;;5.97;3.00;;;14.70;99.90;;;;;;4992891;28;20025;-83
2022/06/04 06:03:15;;;;;;;8.23;3.70;;;14.80;99.90;;;;;;4992597;28;20045;-83
2022/06/04 06:05:43;;;;;;;8.18;4.63;;;14.80;99.90;;;;;;5009925;28;20040;-83
2022/06/04 06:08:10;;;;;;;8.90;4.18;;;14.80;99.90;;;;;;5002715;28;20037;-83
2022/06/04 06:10:44;;;;;;;9.55;3.72;;;14.90;99.90;;;;;;5004897;28;20389;-83
2022/06/04 06:13:11;;;;;;;6.45;3.17;;;14.90;99.90;;;;;;5024558;28;20033;-83
2022/06/04 06:15:38;;;;;;;9.43;4.00;;;14.90;99.90;;;;;;4992222;28;20358;-82
2022/06/04 06:18:06;;;;;;;10.77;3.25;;;14.90;99.90;;;;;;5005487;28;20029;-81
2022/06/04 06:20:34;;;;;;;7.13;3.58;;;14.90;99.90;;;;;;5013038;28;20025;-84
2022/06/04 06:23:01;;;;;;;5.82;3.22;;;15.00;99.90;;;;;;5001794;28;20044;-86
2022/06/04 06:25:28;;;;;;;6.60;4.00;;;15.10;99.90;;;;;;5010651;28;20028;-84
2022/06/04 06:27:55;;;;;;;8.77;3.33;;;15.20;99.90;;;;;;5006579;28;20052;-84
2022/06/04 06:30:21;;;;;;;6.65;3.63;;;15.30;99.90;;;;;;5006414;28;20041;-84
2022/06/04 06:32:47;;;;;;;7.90;3.72;;;15.40;99.90;;;;;;4992109;28;20038;-84
2022/06/04 06:35:14;;;;;;;5.18;3.03;;;15.60;99.90;;;;;;5008799;28;20037;-84
2022/06/04 06:37:40;;;;;;;5.00;2.97;;;15.70;99.90;;;;;;4977265;28;20381;-84
2022/06/04 06:40:07;;;;;;;7.88;3.78;;;15.70;99.90;;;;;;5008403;28;20042;-84
2022/06/04 06:42:34;;;;;;;9.73;4.25;;;15.80;99.90;;;;;;4996294;28;20400;-86
2022/06/04 06:45:06;;;;;;;7.93;4.20;;;15.80;99.90;;;;;;4977461;28;20052;-83
2022/06/04 06:47:33;;;;;;;8.55;3.85;;;15.80;99.90;;;;;;4993920;28;20045;-83
2022/06/04 06:50:00;;;;;;;5.32;3.03;;;15.90;99.90;;;;;;5008891;28;20035;-85
2022/06/04 06:52:26;;;;;;;6.45;3.72;;;15.90;99.90;;;;;;4976946;28;20030;-84
2022/06/04 06:54:53;;;;;;;6.55;2.90;;;15.90;99.90;;;;;;4979509;28;20495;-84
2022/06/04 06:57:19;;;;;;;9.65;4.30;;;15.90;99.90;;;;;;5004924;28;20033;-84
2022/06/04 06:59:47;;;;;;;9.32;3.75;;;15.90;99.90;;;;;;4978154;28;20382;-84
2022/06/04 07:02:14;;;;;;;6.45;3.78;;;15.90;99.90;;;;;;5009716;28;20026;-84
2022/06/04 07:04:40;;;;;;;5.20;2.97;;;15.90;99.90;;;;;;4992954;28;20385;-84
2022/06/04 07:07:07;;;;;;;7.53;4.00;;;15.90;99.90;;;;;;4993316;28;20033;-84
2022/06/04 07:09:41;;;;;;;4.95;3.58;;;16.00;99.90;;;;;;4960394;28;20543;-84
2022/06/04 07:12:09;;;;;;;7.03;3.83;;;16.00;99.90;;;;;;4994852;28;20453;-84
2022/06/04 07:14:36;;;;;;;7.38;4.03;;;16.00;99.90;;;;;;5007712;28;20055;-84
2022/06/04 07:17:05;;;;;;;8.60;3.55;;;16.10;99.90;;;;;;4991307;28;20041;-84
2022/06/04 07:19:31;;;;;;;10.35;4.40;;;16.10;99.90;;;;;;4975551;28;20037;-83
2022/06/04 07:21:58;;;;;;;7.60;3.83;;;16.20;99.90;;;;;;5016268;28;20041;-84
2022/06/04 07:24:25;;;;;;;7.57;3.85;;;16.20;99.90;;;;;;5027827;28;20055;-85
2022/06/04 07:26:52;;;;;;;7.18;4.18;;;16.20;99.90;;;;;;5020764;28;20056;-85
2022/06/04 07:29:19;;;;;;;7.38;4.25;;;16.30;99.90;;;;;;5025013;28;20049;-83
2022/06/04 07:31:45;;;;;;;7.70;3.70;;;16.30;99.90;;;;;;5027420;28;20036;-84
2022/06/04 07:34:12;;;;;;;7.60;3.40;;;16.30;99.90;;;;;;5024465;28;20392;-83
2022/06/04 07:36:42;;;;;;;6.82;4.13;;;16.40;99.90;;;;;;5010226;28;20025;-84
2022/06/04 07:39:10;;;;;;;7.03;3.80;;;16.60;99.90;;;;;;5010412;28;20025;-85
2022/06/04 07:41:40;;;;;;;6.55;3.53;;;16.70;99.90;;;;;;5009935;28;20025;-90
2022/06/04 07:44:07;;;;;;;5.57;3.45;;;16.80;99.90;;;;;;5043107;28;20073;-81
2022/06/04 07:46:35;;;;;;;7.00;4.32;;;16.90;99.90;;;;;;5027315;28;20040;-85
2022/06/04 07:49:04;;;;;;;8.50;4.60;;;17.00;99.90;;;;;;5038469;28;20492;-85
2022/06/04 07:51:33;;;;;;;9.40;4.32;;;17.10;99.90;;;;;;5024154;28;20399;-85
2022/06/04 07:54:03;;;;;;;6.68;4.55;;;17.10;99.90;;;;;;5038195;28;20052;-86
2022/06/04 07:56:30;;;;;;;6.97;3.95;;;17.20;99.90;;;;;;5011324;28;20056;-87
2022/06/04 07:58:58;;;;;;;7.80;3.83;;;17.30;99.90;;;;;;5009673;28;20041;-88
2022/06/04 08:01:28;;;;;;;6.57;3.88;;;17.40;99.90;;;;;;5012141;28;20033;-90
2022/06/04 08:03:58;;;;;;;;;;;17.50;99.90;;;;;;5009796;28;20041;-86
2022/06/04 08:06:26;;;;;;;4.38;2.33;;;17.60;99.90;;;;;;5040692;28;19916;-87
2022/06/04 08:09:13;;;;;;;;;;;;;;;;;;;;;
2022/06/04 08:11:41;;;;;;;6.53;4.18;;;17.80;99.90;;;;;;5018791;28;20388;-88
2022/06/04 08:14:22;;;;;;;6.57;3.47;;;17.80;99.90;;;;;;5027564;28;20038;-87
2022/06/04 08:16:58;;;;;;;6.20;3.20;;;17.90;99.90;;;;;;5044499;28;20052;-86
2022/06/04 08:19:30;;;;;;;6.18;3.13;;;18.00;99.80;;;;;;5012862;28;20353;-87
2022/06/04 08:21:58;;;;;;;5.47;4.55;;;18.10;99.50;;;;;;4985238;28;20038;-89
2022/06/04 08:24:28;;;;;;;7.65;4.68;;;18.20;99.30;;;;;;4964891;28;20042;-88
2022/06/04 08:27:02;;;;;;;;;;;18.30;99.10;;;;;;4995089;28;20037;-89
2022/06/04 08:29:45;;;;;;;5.20;3.70;;;18.30;99.00;;;;;;4995440;28;20357;-87
2022/06/04 08:32:13;;;;;;;6.60;3.70;;;18.50;98.90;;;;;;4993864;28;20393;-87
2022/06/04 08:34:40;;;;;;;5.15;2.80;;;18.50;98.70;;;;;;4993614;28;20041;-89
2022/06/04 08:37:08;;;;;;;5.57;2.50;;;18.50;98.60;;;;;;4994516;28;20036;-89
2022/06/04 08:39:36;;;;;;;4.10;2.60;;;18.70;98.60;;;;;;4986639;28;20043;-87
2022/06/04 08:42:09;;;;;;;4.78;2.55;;;18.90;98.50;;;;;;4988736;28;20041;-89
2022/06/04 08:44:42;;;;;;;7.30;2.92;;;19.20;98.30;;;;;;4999303;28;20060;-89
2022/06/04 08:47:39;;;;;;;7.38;3.13;;;19.30;97.80;;;;;;5014026;28;20041;-90
2022/06/04 08:50:35;;;;;;;7.38;3.85;;;19.40;97.40;;;;;;5011414;28;20036;-89
2022/06/04 08:53:03;;;;;;;5.60;2.83;;;19.30;96.90;;;;;;5008009;28;20046;-88
2022/06/04 08:58:45;;;;;;;7.80;3.58;;;19.30;96.90;;;;;;5006486;28;20045;-86
2022/06/04 09:01:20;;;;;;;7.47;3.55;;;19.40;96.80;;;;;;4993499;28;20026;-87
2022/06/04 09:04:10;;;;;;;5.55;2.97;;;19.50;96.50;;;;;;5010762;28;20377;-86
2022/06/04 09:06:51;;;;;;;4.97;2.95;;;19.60;96.40;;;;;;4974663;28;20033;-82
2022/06/04 09:09:27;;;;;;;9.88;3.83;;;19.70;96.10;;;;;;4978470;28;20049;-86
2022/06/04 09:12:07;;;;;;;6.00;3.45;;;19.70;95.60;;;;;;5004931;28;20040;-82
2022/06/04 09:14:55;;;;;;;8.30;5.15;;;19.70;95.40;;;;;;4972473;28;20033;-87
2022/06/04 09:17:53;;;;;;;6.65;3.95;;;19.80;95.60;;;;;;5004376;28;20037;-86
2022/06/04 09:20:32;;;;;;;4.47;2.70;;;19.90;95.40;;;;;;4976044;28;20045;-89
2022/06/04 09:23:19;;;;;;;7.28;3.05;;;20.10;95.20;;;;;;5002034;28;20037;-87
2022/06/04 09:25:59;;;;;;;7.15;2.80;;;20.20;94.60;;;;;;5004286;28;20030;-88
2022/06/04 09:28:52;;;;;;;6.60;3.67;;;20.20;94.40;;;;;;5000412;28;20033;-79
2022/06/04 09:31:43;;;;;;;4.75;3.13;;;20.40;94.10;;;;;;4986260;28;20353;-80
2022/06/04 09:34:22;;;;;;;5.00;3.22;;;20.50;93.60;;;;;;4999262;28;20034;-80
2022/06/04 09:36:49;;;;;;;4.60;2.17;;;20.60;93.40;;;;;;4999730;28;20397;-80
2022/06/04 09:39:31;;;;;;;8.63;2.97;;;20.70;93.40;;;;;;4986283;28;20032;-80
2022/06/04 09:42:22;;;;;;;8.82;2.63;;;20.90;92.90;;;;;;5018292;28;20014;-81
2022/06/04 09:44:58;;;;;;;4.50;2.15;;;21.10;92.70;;;;;;4961248;28;20053;-79
2022/06/04 09:47:32;;;;;;;6.05;2.80;;;21.30;92.60;;;;;;4970642;28;20025;-82
2022/06/04 09:50:02;;;;;;;5.13;2.58;;;21.50;92.10;;;;;;5000998;28;20041;-78
2022/06/04 09:52:42;;;;;;;5.35;2.95;;;21.50;91.70;;;;;;5001860;28;20038;-80
2022/06/04 09:55:20;;;;;;;5.15;2.17;;;21.40;91.20;;;;;;4972402;28;20026;-79
2022/06/04 09:58:33;;;;;;;4.45;2.35;;;21.40;91.50;;;;;;4999881;28;20013;-83
2022/06/04 10:01:09;;;;;;;9.45;4.28;;;21.60;91.40;;;;;;5015537;28;20044;-81
2022/06/04 10:03:38;;;;;;;2.63;1.85;;;21.70;90.80;;;;;;4988997;28;20110;-85
2022/06/04 10:06:14;;;;;;;7.05;2.40;;;21.60;90.80;;;;;;5004104;28;20034;-87
2022/06/04 10:11:36;;;;;;;4.68;2.78;;;21.80;90.60;;;;;;4999142;28;20523;-85
2022/06/04 10:14:03;;;;;;;4.57;2.53;;;21.80;89.80;;;;;;4982804;28;20488;-89
2022/06/04 10:16:41;;;;;;;3.55;2.55;;;21.70;90.00;;;;;;4986685;28;20041;-82
2022/06/04 10:19:22;;;;;;;4.20;2.47;;;21.80;89.60;;;;;;4991458;28;20014;-82
2022/06/04 10:22:02;;;;;;;5.78;2.00;;;22.00;89.20;;;;;;4999493;28;20058;-80
2022/06/04 10:24:47;;;;;;;6.45;2.70;;;22.10;88.80;;;;;;4991987;28;20036;-85
2022/06/04 10:27:31;;;;;;;3.55;1.75;;;22.10;86.40;;;;;;5001428;28;20037;-84
2022/06/04 10:30:09;;;;;;;3.60;2.33;;;22.10;86.60;;;;;;4973777;28;20029;-78
2022/06/04 10:33:06;;;;;;;5.03;1.27;;;22.20;86.20;;;;;;4982454;28;20046;-80
2022/06/04 10:36:01;;;;;;;4.30;3.00;;;22.30;86.50;;;;;;4970435;28;20046;-79
2022/06/04 10:38:52;;;;;;;5.80;2.50;;;22.70;85.30;;;;;;5013964;28;20037;-85
2022/06/04 10:41:49;;;;;;;6.85;3.63;;;22.70;83.70;;;;;;4984982;28;20048;-88
2022/06/04 10:44:48;;;;;;;2.50;1.88;;;22.70;83.50;;;;;;5002166;28;20033;-88
2022/06/04 10:47:31;;;;;;;6.35;2.50;;;22.90;83.50;;;;;;4973439;28;20396;-87
2022/06/04 10:50:29;;;;;;;4.00;1.55;;;23.10;82.60;;;;;;5007435;28;20485;-83
2022/06/04 10:53:09;;;;;;;4.32;2.03;;;23.30;82.20;;;;;;4973799;28;20041;-82
2022/06/04 10:56:13;;;;;;;4.55;2.10;;;23.30;81.70;;;;;;5023202;28;20056;-81
2022/06/04 10:58:59;;;;;;;4.22;1.75;;;23.40;81.60;;;;;;4986519;28;20038;-80
2022/06/04 11:01:40;;;;;;;3.72;1.63;;;23.40;81.20;;;;;;5006135;28;20464;-81
2022/06/04 11:04:46;;;;;;;2.60;1.40;;;23.60;80.90;;;;;;5021500;28;20037;-81
2022/06/04 11:07:37;;;;;;;5.00;2.10;;;23.70;81.20;;;;;;5003621;28;20040;-81
2022/06/04 11:10:06;;;;;;;4.13;1.95;;;23.80;80.10;;;;;;4984393;28;20481;-81
2022/06/04 11:12:46;;;;;;;3.72;1.60;;;23.90;79.90;;;;;;5018838;28;20042;-81
2022/06/04 11:15:25;;;;;;;3.95;1.50;;;23.90;79.40;;;;;;5004778;28;20041;-85
2022/06/04 11:18:20;;;;;;;7.07;2.60;;;24.00;79.30;;;;;;4985245;28;20029;-83
2022/06/04 11:21:03;;;;;;;4.88;2.17;;;24.10;78.30;;;;;;5002547;28;20052;-82
2022/06/04 11:23:57;;;;;;;4.32;2.30;;;24.10;78.00;;;;;;4975286;28;20481;-88
2022/06/04 11:26:47;;;;;;;4.07;1.75;;;24.00;77.40;;;;;;4995792;28;20050;-88
2022/06/04 11:29:15;;;;;;;4.55;1.90;;;24.10;77.90;;;;;;5000618;28;20049;-88
2022/06/04 11:32:07;;;;;;;8.68;2.65;;;24.50;78.00;;;;;;4981111;28;20057;-89
2022/06/04 11:35:03;;;;;;;6.40;1.90;;;24.80;77.40;;;;;;5012258;28;20056;-89
2022/06/04 11:38:10;;;;;;;6.53;2.65;;;25.10;75.00;;;;;;5014476;28;20041;-88
2022/06/04 11:40:39;;;;;;;3.13;1.80;;;25.40;74.60;;;;;;5010644;28;20042;-87
2022/06/04 11:44:03;;;;;;;5.10;2.35;;;25.50;73.20;;;;;;5006898;28;20052;-88
2022/06/04 11:47:06;;;;;;;3.88;1.63;;;25.50;72.30;;;;;;4937975;28;20046;-87
2022/06/04 11:49:46;;;;;;;4.53;1.70;;;25.50;72.00;;;;;;4949095;28;20047;-87
2022/06/04 11:52:26;;;;;;;6.38;2.28;;;25.80;71.60;;;;;;4988415;28;20389;-86
2022/06/04 11:54:57;;;;;;;4.97;2.10;;;26.20;70.50;;;;;;4985688;28;20038;-88
2022/06/04 11:57:40;;;;;;;4.07;1.38;;;26.50;69.60;;;;;;4991121;28;20469;-88
2022/06/04 12:00:18;;;;;;;4.55;1.80;;;26.70;69.10;;;;;;4996122;28;20045;-87
2022/06/04 12:03:17;;;;;;;2.92;1.55;;;27.00;68.90;;;;;;5024317;28;20037;-85
2022/06/04 12:05:57;;;;;;;2.42;1.63;;;27.20;67.70;;;;;;5011776;28;20042;-88
2022/06/04 12:08:41;;;;;;;3.38;1.90;;;27.60;66.20;;;;;;4986160;28;20038;-89
2022/06/04 12:11:10;;;;;;;3.17;1.50;;;28.00;65.20;;;;;;4978187;28;20037;-88
2022/06/04 12:13:48;;;;;;;1.95;1.30;;;28.30;64.60;;;;;;4996886;28;20048;-89
2022/06/04 12:16:29;;;;;;;2.47;1.20;;;28.50;64.10;;;;;;4995722;28;20033;-90
2022/06/04 12:25:47;;;;;;;3.70;1.63;;;29.10;62.30;;;;;;5011196;28;20354;-85
2022/06/04 12:28:31;;;;;;;2.35;1.17;;;29.30;60.70;;;;;;5012212;28;20048;-83
2022/06/04 12:31:01;;;;;;;4.03;1.58;;;29.60;60.90;;;;;;4999613;28;20040;-82
2022/06/04 12:33:52;;;;;;;3.72;1.27;;;30.20;59.70;;;;;;5028529;28;20033;-81
2022/06/04 12:36:34;;;;;;;6.40;1.17;;;30.30;58.10;;;;;;5003850;28;20485;-79
2022/06/04 12:39:42;;;;;;;3.03;1.52;;;30.50;58.50;;;;;;5004759;28;20029;-80
2022/06/04 12:42:20;;;;;;;10.32;7.30;;;30.50;57.00;;;;;;5000465;28;20040;-90
2022/06/04 12:45:25;;;;;;;4.78;1.85;;;30.50;57.20;;;;;;4999101;28;20507;-88
2022/06/04 12:47:58;;;;;;;6.60;4.10;;;30.80;56.70;;;;;;4990659;28;20033;-86
2022/06/04 12:50:37;;;;;;;5.15;3.80;;;31.10;55.70;;;;;;5002912;28;20037;-86
2022/06/04 12:53:23;;;;;;;6.00;4.50;;;31.20;55.30;;;;;;4989018;28;20042;-86
2022/06/04 12:55:55;;;;;;;2.55;1.70;;;31.70;54.20;;;;;;4992610;28;20045;-87
2022/06/04 12:58:46;;;;;;;2.80;2.30;;;32.00;52.50;;;;;;5003516;28;20029;-90
2022/06/04 13:01:18;;;;;;;4.07;1.50;;;32.10;51.60;;;;;;5001290;28;20036;-86
2022/06/04 13:03:49;;;;;;;5.90;1.50;;;32.40;51.00;;;;;;5028051;28;20029;-86
2022/06/04 13:06:28;;;;;;;3.90;2.30;;;32.70;51.00;;;;;;5010505;28;20498;-88
2022/06/04 13:09:12;;;;;;;2.47;1.10;;;33.30;49.40;;;;;;4996902;28;20037;-87
2022/06/04 13:12:25;;;;;;;3.35;1.58;;;33.40;49.30;;;;;;5026146;28;20397;-89
2022/06/04 13:15:14;;;;;;;2.58;1.15;;;33.90;48.20;;;;;;4969102;28;20065;-89
2022/06/04 13:17:48;;;;;;;3.88;1.83;;;34.20;47.90;;;;;;4991650;28;20064;-88
2022/06/04 13:20:43;;;;;;;3.03;1.50;;;34.40;46.50;;;;;;5029695;28;20037;-86
2022/06/04 13:23:13;;;;;;;3.15;1.08;;;34.40;46.30;;;;;;4990083;28;20041;-83
2022/06/04 13:25:51;;;;;;;3.67;1.27;;;34.00;46.40;;;;;;5008533;28;20125;-82
2022/06/04 13:28:36;;;;;;;1.92;1.20;;;33.50;46.90;;;;;;5003222;28;20029;-82
2022/06/04 13:31:15;;;;;;;4.50;2.00;;;33.30;47.10;;;;;;4991411;28;20022;-81
2022/06/04 13:33:42;;;;;;;3.00;1.33;;;33.70;46.40;;;;;;5021965;28;20980;-82
2022/06/04 13:36:11;;;;;;;4.07;1.20;;;33.80;46.00;;;;;;5008802;28;20037;-82
2022/06/04 13:38:43;;;;;;;2.20;0.98;;;34.00;45.50;;;;;;5004871;28;20036;-81
2022/06/04 13:44:23;;;;;;;2.88;1.10;;;34.60;45.30;;;;;;5021689;28;20044;-81
2022/06/04 13:46:50;;;;;;;2.75;1.10;;;34.90;44.40;;;;;;4987493;28;20041;-81
2022/06/04 13:49:23;;;;;;;2.97;1.02;;;35.00;44.40;;;;;;4974769;28;20030;-80
2022/06/04 13:52:15;;;;;;;2.20;1.40;;;35.20;43.80;;;;;;4972925;28;20025;-81
2022/06/04 13:54:52;;;;;;;;;;;35.20;43.40;;;;;;5020886;28;20045;-81